sensor_id;sensor_type;location;lat;lon;timestamp;temperature;humidity
35603;DHT22;21725;50.836;4.368;2022-10-16T00:01:33;17.40;99.90
35603;DHT22;21725;50.836;4.368;2022-10-16T00:03:59;17.40;99.90
35603;DHT22;21725;50.836;4.368;2022-10-16T00:06:26;17.40;99.90
35603;DHT22;21725;50.836;4.368;2022-10-16T00:08:53;17.40;99.90
35603;DHT22;21725;50.836;4.368;2022-10-16T00:11:21;17.40;99.90
35603;DHT22;21725;50.836;4.368;2022-10-16T00:13:48;17.40;99.90
35603;DHT22;21725;50.836;4.368;2022-10-16T00:16:15;17.30;99.90
35603;DHT22;21725;50.836;4.368;2022-10-16T00:18:41;17.30;99.90
35603;DHT22;21725;50.836;4.368;2022-10-16T00:21:12;17.30;99.90
35603;DHT22;21725;50.836;4.368;2022-10-16T00:23:39;17.50;99.90
35603;DHT22;21725;50.836;4.368;2022-10-16T00:26:08;17.40;99.90
35603;DHT22;21725;50.836;4.368;2022-10-16T00:28:35;17.40;99.90
35603;DHT22;21725;50.836;4.368;2022-10-16T00:31:06;17.40;99.90
35603;DHT22;21725;50.836;4.368;2022-10-16T00:33:33;17.20;99.90
35603;DHT22;21725;50.836;4.368;2022-10-16T00:36:00;17.10;99.90
35603;DHT22;21725;50.836;4.368;2022-10-16T00:38:26;17.30;99.90
35603;DHT22;21725;50.836;4.368;2022-10-16T00:40:52;17.40;99.90
35603;DHT22;21725;50.836;4.368;2022-10-16T00:46:02;17.30;99.90
35603;DHT22;21725;50.836;4.368;2022-10-16T00:48:29;17.20;99.90
35603;DHT22;21725;50.836;4.368;2022-10-16T00:50:57;17.20;99.90
35603;DHT22;21725;50.836;4.368;2022-10-16T00:53:24;17.20;99.90
35603;DHT22;21725;50.836;4.368;2022-10-16T00:55:51;17.20;99.90
35603;DHT22;21725;50.836;4.368;2022-10-16T00:58:17;17.00;99.90
35603;DHT22;21725;50.836;4.368;2022-10-16T01:00:42;17.00;99.90
35603;DHT22;21725;50.836;4.368;2022-10-16T01:03:30;17.00;99.90
35603;DHT22;21725;50.836;4.368;2022-10-16T01:06:24;17.10;99.90
35603;DHT22;21725;50.836;4.368;2022-10-16T01:09:06;17.10;99.90
35603;DHT22;21725;50.836;4.368;2022-10-16T01:11:44;17.10;99.90
35603;DHT22;21725;50.836;4.368;2022-10-16T01:14:26;17.10;99.90
35603;DHT22;21725;50.836;4.368;2022-10-16T01:20:08;16.90;99.90
35603;DHT22;21725;50.836;4.368;2022-10-16T01:22:59;17.00;99.90
35603;DHT22;21725;50.836;4.368;2022-10-16T01:28:24;16.90;99.90
35603;DHT22;21725;50.836;4.368;2022-10-16T01:30:57;17.00;99.90
35603;DHT22;21725;50.836;4.368;2022-10-16T01:33:35;17.00;99.90
35603;DHT22;21725;50.836;4.368;2022-10-16T01:36:10;17.00;99.90
35603;DHT22;21725;50.836;4.368;2022-10-16T01:38:39;16.70;99.90
35603;DHT22;21725;50.836;4.368;2022-10-16T01:41:28;16.90;99.90
35603;DHT22;21725;50.836;4.368;2022-10-16T01:44:09;17.00;99.90
35603;DHT22;21725;50.836;4.368;2022-10-16T01:46:37;17.00;99.90
35603;DHT22;21725;50.836;4.368;2022-10-16T01:49:05;17.00;99.90
35603;DHT22;21725;50.836;4.368;2022-10-16T01:51:32;17.00;99.90
35603;DHT22;21725;50.836;4.368;2022-10-16T01:54:01;16.90;99.90
35603;DHT22;21725;50.836;4.368;2022-10-16T01:56:28;17.00;99.90
35603;DHT22;21725;50.836;4.368;2022-10-16T01:59:01;17.00;99.90
35603;DHT22;21725;50.836;4.368;2022-10-16T02:01:31;16.90;99.90
35603;DHT22;21725;50.836;4.368;2022-10-16T02:04:03;16.90;99.90
35603;DHT22;21725;50.836;4.368;2022-10-16T02:06:32;17.00;99.90
35603;DHT22;21725;50.836;4.368;2022-10-16T02:08:59;16.90;99.90
35603;DHT22;21725;50.836;4.368;2022-10-16T02:11:25;16.90;99.90
35603;DHT22;21725;50.836;4.368;2022-10-16T02:14:09;16.90;99.90
35603;DHT22;21725;50.836;4.368;2022-10-16T02:16:38;16.80;99.90
35603;DHT22;21725;50.836;4.368;2022-10-16T02:19:05;16.80;99.90
35603;DHT22;21725;50.836;4.368;2022-10-16T02:21:54;16.80;99.90
35603;DHT22;21725;50.836;4.368;2022-10-16T02:29:48;16.90;99.90
35603;DHT22;21725;50.836;4.368;2022-10-16T02:32:21;16.90;99.90
35603;DHT22;21725;50.836;4.368;2022-10-16T02:34:49;16.90;99.90
35603;DHT22;21725;50.836;4.368;2022-10-16T02:37:16;16.90;99.90
35603;DHT22;21725;50.836;4.368;2022-10-16T02:39:43;16.90;99.90
35603;DHT22;21725;50.836;4.368;2022-10-16T02:42:13;16.90;99.90
35603;DHT22;21725;50.836;4.368;2022-10-16T02:44:39;16.90;99.90
35603;DHT22;21725;50.836;4.368;2022-10-16T02:47:04;16.90;99.90
35603;DHT22;21725;50.836;4.368;2022-10-16T02:49:31;16.80;99.90
35603;DHT22;21725;50.836;4.368;2022-10-16T02:51:57;16.70;99.90
35603;DHT22;21725;50.836;4.368;2022-10-16T02:54:23;16.70;99.90
35603;DHT22;21725;50.836;4.368;2022-10-16T02:56:49;16.80;99.90
35603;DHT22;21725;50.836;4.368;2022-10-16T02:59:15;16.60;99.90
35603;DHT22;21725;50.836;4.368;2022-10-16T03:01:41;16.80;99.90
35603;DHT22;21725;50.836;4.368;2022-10-16T03:04:07;17.00;99.90
35603;DHT22;21725;50.836;4.368;2022-10-16T03:06:33;16.90;99.90
35603;DHT22;21725;50.836;4.368;2022-10-16T03:08:59;16.90;99.90
35603;DHT22;21725;50.836;4.368;2022-10-16T03:11:25;16.90;99.90
35603;DHT22;21725;50.836;4.368;2022-10-16T03:13:52;16.90;99.90
35603;DHT22;21725;50.836;4.368;2022-10-16T03:16:17;16.80;99.90
35603;DHT22;21725;50.836;4.368;2022-10-16T03:18:43;16.90;99.90
35603;DHT22;21725;50.836;4.368;2022-10-16T03:21:09;16.90;99.90
35603;DHT22;21725;50.836;4.368;2022-10-16T03:23:35;16.90;99.90
35603;DHT22;21725;50.836;4.368;2022-10-16T03:26:01;16.90;99.90
35603;DHT22;21725;50.836;4.368;2022-10-16T03:28:26;16.90;99.90
35603;DHT22;21725;50.836;4.368;2022-10-16T03:30:52;16.70;99.90
35603;DHT22;21725;50.836;4.368;2022-10-16T03:33:18;16.80;99.90
35603;DHT22;21725;50.836;4.368;2022-10-16T03:35:51;16.80;99.90
35603;DHT22;21725;50.836;4.368;2022-10-16T03:38:17;16.90;99.90
35603;DHT22;21725;50.836;4.368;2022-10-16T03:40:43;16.70;99.90
35603;DHT22;21725;50.836;4.368;2022-10-16T03:43:09;16.70;99.90
35603;DHT22;21725;50.836;4.368;2022-10-16T03:45:34;16.70;99.90
35603;DHT22;21725;50.836;4.368;2022-10-16T03:48:00;16.70;99.90
35603;DHT22;21725;50.836;4.368;2022-10-16T03:50:28;16.80;99.90
35603;DHT22;21725;50.836;4.368;2022-10-16T03:52:53;16.80;99.90
35603;DHT22;21725;50.836;4.368;2022-10-16T03:55:19;16.80;99.90
35603;DHT22;21725;50.836;4.368;2022-10-16T03:57:45;16.90;99.90
35603;DHT22;21725;50.836;4.368;2022-10-16T04:00:12;17.00;99.90
35603;DHT22;21725;50.836;4.368;2022-10-16T04:02:38;16.90;99.90
35603;DHT22;21725;50.836;4.368;2022-10-16T04:05:04;16.80;99.90
35603;DHT22;21725;50.836;4.368;2022-10-16T04:07:31;16.80;99.90
35603;DHT22;21725;50.836;4.368;2022-10-16T04:09:56;16.90;99.90
35603;DHT22;21725;50.836;4.368;2022-10-16T04:12:25;16.90;99.90
35603;DHT22;21725;50.836;4.368;2022-10-16T04:14:50;16.90;99.90
35603;DHT22;21725;50.836;4.368;2022-10-16T04:17:16;16.90;99.90
35603;DHT22;21725;50.836;4.368;2022-10-16T04:19:42;16.80;99.90
35603;DHT22;21725;50.836;4.368;2022-10-16T04:22:08;16.90;99.90
35603;DHT22;21725;50.836;4.368;2022-10-16T04:24:34;16.80;99.90
35603;DHT22;21725;50.836;4.368;2022-10-16T04:27:00;16.80;99.90
35603;DHT22;21725;50.836;4.368;2022-10-16T04:29:25;16.90;99.90
35603;DHT22;21725;50.836;4.368;2022-10-16T04:31:51;16.80;99.90
35603;DHT22;21725;50.836;4.368;2022-10-16T04:34:17;16.70;99.90
35603;DHT22;21725;50.836;4.368;2022-10-16T04:36:43;16.60;99.90
35603;DHT22;21725;50.836;4.368;2022-10-16T04:39:09;16.60;99.90
35603;DHT22;21725;50.836;4.368;2022-10-16T04:41:34;16.60;99.90
35603;DHT22;21725;50.836;4.368;2022-10-16T04:44:00;16.80;99.90
35603;DHT22;21725;50.836;4.368;2022-10-16T04:46:26;16.70;99.90
35603;DHT22;21725;50.836;4.368;2022-10-16T04:48:52;16.60;99.90
35603;DHT22;21725;50.836;4.368;2022-10-16T04:51:17;16.70;99.90
35603;DHT22;21725;50.836;4.368;2022-10-16T04:53:44;16.70;99.90
35603;DHT22;21725;50.836;4.368;2022-10-16T04:56:10;16.70;99.90
35603;DHT22;21725;50.836;4.368;2022-10-16T04:58:35;16.70;99.90
35603;DHT22;21725;50.836;4.368;2022-10-16T05:01:01;16.80;99.90
35603;DHT22;21725;50.836;4.368;2022-10-16T05:03:30;16.80;99.90
35603;DHT22;21725;50.836;4.368;2022-10-16T05:05:56;16.70;99.90
35603;DHT22;21725;50.836;4.368;2022-10-16T05:08:22;16.90;99.90
35603;DHT22;21725;50.836;4.368;2022-10-16T05:10:48;16.70;99.90
35603;DHT22;21725;50.836;4.368;2022-10-16T05:13:14;16.80;99.90
35603;DHT22;21725;50.836;4.368;2022-10-16T05:15:40;16.70;99.90
35603;DHT22;21725;50.836;4.368;2022-10-16T05:18:06;16.70;99.90
35603;DHT22;21725;50.836;4.368;2022-10-16T05:20:31;16.70;99.90
35603;DHT22;21725;50.836;4.368;2022-10-16T05:22:58;16.60;99.90
35603;DHT22;21725;50.836;4.368;2022-10-16T05:25:24;16.50;99.90
35603;DHT22;21725;50.836;4.368;2022-10-16T05:27:50;16.50;99.90
35603;DHT22;21725;50.836;4.368;2022-10-16T05:30:16;16.60;99.90
35603;DHT22;21725;50.836;4.368;2022-10-16T05:32:47;16.60;99.90
35603;DHT22;21725;50.836;4.368;2022-10-16T05:35:13;16.50;99.90
35603;DHT22;21725;50.836;4.368;2022-10-16T05:37:39;16.50;99.90
35603;DHT22;21725;50.836;4.368;2022-10-16T05:40:05;16.30;99.90
35603;DHT22;21725;50.836;4.368;2022-10-16T05:42:31;16.30;99.90
35603;DHT22;21725;50.836;4.368;2022-10-16T05:44:57;16.30;99.90
35603;DHT22;21725;50.836;4.368;2022-10-16T05:47:23;16.30;99.90
35603;DHT22;21725;50.836;4.368;2022-10-16T05:49:49;16.20;99.90
35603;DHT22;21725;50.836;4.368;2022-10-16T05:52:15;16.30;99.90
35603;DHT22;21725;50.836;4.368;2022-10-16T05:54:41;16.50;99.90
35603;DHT22;21725;50.836;4.368;2022-10-16T05:57:07;16.50;99.90
35603;DHT22;21725;50.836;4.368;2022-10-16T05:59:33;16.40;99.90
35603;DHT22;21725;50.836;4.368;2022-10-16T06:01:58;16.40;99.90
35603;DHT22;21725;50.836;4.368;2022-10-16T06:04:24;16.40;99.90
35603;DHT22;21725;50.836;4.368;2022-10-16T06:06:50;16.40;99.90
35603;DHT22;21725;50.836;4.368;2022-10-16T06:09:16;16.40;99.90
35603;DHT22;21725;50.836;4.368;2022-10-16T06:11:42;16.30;99.90
35603;DHT22;21725;50.836;4.368;2022-10-16T06:14:08;16.30;99.90
35603;DHT22;21725;50.836;4.368;2022-10-16T06:16:36;16.30;99.90
35603;DHT22;21725;50.836;4.368;2022-10-16T06:19:02;16.50;99.90
35603;DHT22;21725;50.836;4.368;2022-10-16T06:21:31;16.40;99.90
35603;DHT22;21725;50.836;4.368;2022-10-16T06:23:58;16.30;99.90
35603;DHT22;21725;50.836;4.368;2022-10-16T06:26:27;16.50;99.90
35603;DHT22;21725;50.836;4.368;2022-10-16T06:28:58;16.50;99.90
35603;DHT22;21725;50.836;4.368;2022-10-16T06:31:25;16.50;99.90
35603;DHT22;21725;50.836;4.368;2022-10-16T06:33:53;16.70;99.90
35603;DHT22;21725;50.836;4.368;2022-10-16T06:36:19;16.70;99.90
35603;DHT22;21725;50.836;4.368;2022-10-16T06:38:46;16.60;99.90
35603;DHT22;21725;50.836;4.368;2022-10-16T06:41:14;16.70;99.90
35603;DHT22;21725;50.836;4.368;2022-10-16T06:43:40;16.60;99.90
35603;DHT22;21725;50.836;4.368;2022-10-16T06:46:08;16.70;99.90
35603;DHT22;21725;50.836;4.368;2022-10-16T06:48:35;16.80;99.90
35603;DHT22;21725;50.836;4.368;2022-10-16T06:51:12;16.90;99.90
35603;DHT22;21725;50.836;4.368;2022-10-16T06:53:42;17.10;99.90
35603;DHT22;21725;50.836;4.368;2022-10-16T06:58:33;17.10;99.90
35603;DHT22;21725;50.836;4.368;2022-10-16T07:00:59;17.20;99.90
35603;DHT22;21725;50.836;4.368;2022-10-16T07:03:25;17.20;99.90
35603;DHT22;21725;50.836;4.368;2022-10-16T07:05:52;17.20;99.90
35603;DHT22;21725;50.836;4.368;2022-10-16T07:08:18;17.20;99.90
35603;DHT22;21725;50.836;4.368;2022-10-16T07:10:44;17.20;99.90
35603;DHT22;21725;50.836;4.368;2022-10-16T07:13:10;17.30;99.90
35603;DHT22;21725;50.836;4.368;2022-10-16T07:15:39;17.40;99.90
35603;DHT22;21725;50.836;4.368;2022-10-16T07:18:04;17.20;99.90
35603;DHT22;21725;50.836;4.368;2022-10-16T07:20:33;17.20;99.90
35603;DHT22;21725;50.836;4.368;2022-10-16T07:22:59;17.30;99.90
35603;DHT22;21725;50.836;4.368;2022-10-16T07:25:25;17.20;99.90
35603;DHT22;21725;50.836;4.368;2022-10-16T07:27:51;17.20;99.90
35603;DHT22;21725;50.836;4.368;2022-10-16T07:30:17;17.30;99.90
35603;DHT22;21725;50.836;4.368;2022-10-16T07:32:43;17.20;99.90
35603;DHT22;21725;50.836;4.368;2022-10-16T07:35:12;17.20;99.90
35603;DHT22;21725;50.836;4.368;2022-10-16T07:37:38;17.20;99.90
35603;DHT22;21725;50.836;4.368;2022-10-16T07:40:07;17.20;99.90
35603;DHT22;21725;50.836;4.368;2022-10-16T07:42:34;17.10;99.90
35603;DHT22;21725;50.836;4.368;2022-10-16T07:45:00;17.30;99.90
35603;DHT22;21725;50.836;4.368;2022-10-16T07:47:25;17.40;99.90
35603;DHT22;21725;50.836;4.368;2022-10-16T07:49:51;17.50;99.90
35603;DHT22;21725;50.836;4.368;2022-10-16T07:52:17;17.50;99.90
35603;DHT22;21725;50.836;4.368;2022-10-16T07:54:43;17.50;99.90
35603;DHT22;21725;50.836;4.368;2022-10-16T07:57:09;17.40;99.90
35603;DHT22;21725;50.836;4.368;2022-10-16T07:59:34;17.50;99.90
35603;DHT22;21725;50.836;4.368;2022-10-16T08:02:00;17.60;99.90
35603;DHT22;21725;50.836;4.368;2022-10-16T08:04:26;17.70;99.90
35603;DHT22;21725;50.836;4.368;2022-10-16T08:06:52;17.80;99.90
35603;DHT22;21725;50.836;4.368;2022-10-16T08:09:19;17.70;99.90
35603;DHT22;21725;50.836;4.368;2022-10-16T08:11:45;17.60;99.90
35603;DHT22;21725;50.836;4.368;2022-10-16T08:14:11;17.60;99.90
35603;DHT22;21725;50.836;4.368;2022-10-16T08:16:36;17.50;99.90
35603;DHT22;21725;50.836;4.368;2022-10-16T08:19:02;17.80;99.90
35603;DHT22;21725;50.836;4.368;2022-10-16T08:21:28;17.80;99.90
35603;DHT22;21725;50.836;4.368;2022-10-16T08:23:54;17.90;99.90
35603;DHT22;21725;50.836;4.368;2022-10-16T08:26:20;18.00;99.90
35603;DHT22;21725;50.836;4.368;2022-10-16T08:28:49;18.10;99.90
35603;DHT22;21725;50.836;4.368;2022-10-16T08:31:15;18.20;99.90
35603;DHT22;21725;50.836;4.368;2022-10-16T08:33:43;18.00;99.90
35603;DHT22;21725;50.836;4.368;2022-10-16T08:36:11;17.90;99.90
35603;DHT22;21725;50.836;4.368;2022-10-16T08:38:37;17.90;99.90
35603;DHT22;21725;50.836;4.368;2022-10-16T08:49:23;18.30;99.90
35603;DHT22;21725;50.836;4.368;2022-10-16T08:51:50;18.50;99.90
35603;DHT22;21725;50.836;4.368;2022-10-16T08:54:26;18.40;99.90
35603;DHT22;21725;50.836;4.368;2022-10-16T08:56:57;18.50;99.90
35603;DHT22;21725;50.836;4.368;2022-10-16T08:59:26;18.90;99.90
35603;DHT22;21725;50.836;4.368;2022-10-16T09:01:52;18.70;99.90
35603;DHT22;21725;50.836;4.368;2022-10-16T09:04:47;18.60;99.90
35603;DHT22;21725;50.836;4.368;2022-10-16T09:07:47;18.80;99.90
35603;DHT22;21725;50.836;4.368;2022-10-16T09:10:54;18.90;99.90
35603;DHT22;21725;50.836;4.368;2022-10-16T09:13:28;18.90;99.90
35603;DHT22;21725;50.836;4.368;2022-10-16T09:16:07;18.90;99.90
35603;DHT22;21725;50.836;4.368;2022-10-16T09:21:30;19.10;99.90
35603;DHT22;21725;50.836;4.368;2022-10-16T09:24:12;19.00;99.90
35603;DHT22;21725;50.836;4.368;2022-10-16T09:26:38;19.10;99.90
35603;DHT22;21725;50.836;4.368;2022-10-16T09:29:04;19.30;99.90
35603;DHT22;21725;50.836;4.368;2022-10-16T09:31:31;19.20;99.90
35603;DHT22;21725;50.836;4.368;2022-10-16T09:34:02;19.40;99.90
35603;DHT22;21725;50.836;4.368;2022-10-16T09:36:36;19.50;99.90
35603;DHT22;21725;50.836;4.368;2022-10-16T09:39:07;19.50;99.90
35603;DHT22;21725;50.836;4.368;2022-10-16T09:41:38;19.80;99.90
35603;DHT22;21725;50.836;4.368;2022-10-16T09:44:15;20.00;99.90
35603;DHT22;21725;50.836;4.368;2022-10-16T09:46:43;19.90;99.90
35603;DHT22;21725;50.836;4.368;2022-10-16T09:49:22;19.90;99.90
35603;DHT22;21725;50.836;4.368;2022-10-16T09:51:49;19.90;99.90
35603;DHT22;21725;50.836;4.368;2022-10-16T09:54:20;20.10;99.60
35603;DHT22;21725;50.836;4.368;2022-10-16T09:56:46;20.10;99.50
35603;DHT22;21725;50.836;4.368;2022-10-16T09:59:19;19.80;99.90
35603;DHT22;21725;50.836;4.368;2022-10-16T10:01:50;19.80;99.90
35603;DHT22;21725;50.836;4.368;2022-10-16T10:04:18;20.00;99.90
35603;DHT22;21725;50.836;4.368;2022-10-16T10:06:57;20.00;99.50
35603;DHT22;21725;50.836;4.368;2022-10-16T10:09:24;20.20;99.40
35603;DHT22;21725;50.836;4.368;2022-10-16T10:15:15;20.50;98.90
35603;DHT22;21725;50.836;4.368;2022-10-16T10:17:58;20.20;99.00
35603;DHT22;21725;50.836;4.368;2022-10-16T10:20:40;20.20;99.00
35603;DHT22;21725;50.836;4.368;2022-10-16T10:23:23;20.40;98.80
35603;DHT22;21725;50.836;4.368;2022-10-16T10:26:08;20.50;98.50
35603;DHT22;21725;50.836;4.368;2022-10-16T10:29:01;20.50;98.50
35603;DHT22;21725;50.836;4.368;2022-10-16T10:32:05;20.40;98.50
35603;DHT22;21725;50.836;4.368;2022-10-16T10:34:55;20.50;98.50
35603;DHT22;21725;50.836;4.368;2022-10-16T10:37:59;20.50;98.70
35603;DHT22;21725;50.836;4.368;2022-10-16T10:40:45;20.70;98.30
35603;DHT22;21725;50.836;4.368;2022-10-16T10:46:41;21.30;97.90
35603;DHT22;21725;50.836;4.368;2022-10-16T10:51:59;21.60;97.30
35603;DHT22;21725;50.836;4.368;2022-10-16T11:03:55;21.50;96.50
35603;DHT22;21725;50.836;4.368;2022-10-16T11:06:20;21.50;96.70
35603;DHT22;21725;50.836;4.368;2022-10-16T11:09:02;21.60;96.50
35603;DHT22;21725;50.836;4.368;2022-10-16T11:12:05;21.80;96.00
35603;DHT22;21725;50.836;4.368;2022-10-16T11:14:56;21.50;96.50
35603;DHT22;21725;50.836;4.368;2022-10-16T11:17:38;21.60;96.30
35603;DHT22;21725;50.836;4.368;2022-10-16T11:20:20;21.60;96.30
35603;DHT22;21725;50.836;4.368;2022-10-16T11:25:26;21.90;96.00
35603;DHT22;21725;50.836;4.368;2022-10-16T11:28:42;22.00;95.60
35603;DHT22;21725;50.836;4.368;2022-10-16T11:33:39;22.10;94.70
35603;DHT22;21725;50.836;4.368;2022-10-16T11:36:38;22.20;94.60
35603;DHT22;21725;50.836;4.368;2022-10-16T11:39:21;22.20;94.60
35603;DHT22;21725;50.836;4.368;2022-10-16T11:47:37;21.60;95.20
35603;DHT22;21725;50.836;4.368;2022-10-16T11:55:37;21.80;94.50
35603;DHT22;21725;50.836;4.368;2022-10-16T12:03:40;21.50;94.60
35603;DHT22;21725;50.836;4.368;2022-10-16T12:06:13;21.90;94.20
35603;DHT22;21725;50.836;4.368;2022-10-16T12:08:50;22.20;94.00
35603;DHT22;21725;50.836;4.368;2022-10-16T12:17:00;22.40;94.30
35603;DHT22;21725;50.836;4.368;2022-10-16T12:19:28;22.20;94.40
35603;DHT22;21725;50.836;4.368;2022-10-16T12:22:02;22.20;93.80
35603;DHT22;21725;50.836;4.368;2022-10-16T12:24:38;22.20;93.80
35603;DHT22;21725;50.836;4.368;2022-10-16T12:27:30;22.20;93.70
35603;DHT22;21725;50.836;4.368;2022-10-16T12:29:59;22.10;93.60
35603;DHT22;21725;50.836;4.368;2022-10-16T12:32:36;22.20;93.30
35603;DHT22;21725;50.836;4.368;2022-10-16T12:35:05;22.30;93.40
35603;DHT22;21725;50.836;4.368;2022-10-16T12:38:05;22.10;93.80
35603;DHT22;21725;50.836;4.368;2022-10-16T12:40:39;22.30;93.70
35603;DHT22;21725;50.836;4.368;2022-10-16T12:43:39;22.20;94.00
35603;DHT22;21725;50.836;4.368;2022-10-16T12:48:35;22.30;93.00
35603;DHT22;21725;50.836;4.368;2022-10-16T13:05:44;22.00;94.10
35603;DHT22;21725;50.836;4.368;2022-10-16T13:14:31;22.00;94.20
35603;DHT22;21725;50.836;4.368;2022-10-16T13:17:11;22.20;94.00
35603;DHT22;21725;50.836;4.368;2022-10-16T13:20:04;22.10;94.20
35603;DHT22;21725;50.836;4.368;2022-10-16T13:28:32;22.60;93.70
35603;DHT22;21725;50.836;4.368;2022-10-16T13:31:04;22.30;93.90
35603;DHT22;21725;50.836;4.368;2022-10-16T13:33:39;22.70;93.80
35603;DHT22;21725;50.836;4.368;2022-10-16T13:36:26;22.70;93.90
35603;DHT22;21725;50.836;4.368;2022-10-16T13:39:14;22.60;94.40
35603;DHT22;21725;50.836;4.368;2022-10-16T13:41:44;22.60;94.30
35603;DHT22;21725;50.836;4.368;2022-10-16T13:44:15;22.70;93.90
35603;DHT22;21725;50.836;4.368;2022-10-16T13:46:58;22.60;93.90
35603;DHT22;21725;50.836;4.368;2022-10-16T13:49:27;22.40;94.10
35603;DHT22;21725;50.836;4.368;2022-10-16T13:51:55;22.20;94.60
35603;DHT22;21725;50.836;4.368;2022-10-16T13:54:21;22.40;94.20
35603;DHT22;21725;50.836;4.368;2022-10-16T13:56:47;22.40;94.30
35603;DHT22;21725;50.836;4.368;2022-10-16T13:59:33;22.60;94.10
35603;DHT22;21725;50.836;4.368;2022-10-16T14:02:15;22.70;93.70
35603;DHT22;21725;50.836;4.368;2022-10-16T14:04:46;22.60;93.30
35603;DHT22;21725;50.836;4.368;2022-10-16T14:07:28;22.60;93.20
35603;DHT22;21725;50.836;4.368;2022-10-16T14:10:03;22.50;93.40
35603;DHT22;21725;50.836;4.368;2022-10-16T14:12:30;22.40;93.50
35603;DHT22;21725;50.836;4.368;2022-10-16T14:15:04;22.40;93.70
35603;DHT22;21725;50.836;4.368;2022-10-16T14:17:35;22.20;93.80
35603;DHT22;21725;50.836;4.368;2022-10-16T14:20:05;22.30;93.80
35603;DHT22;21725;50.836;4.368;2022-10-16T14:22:37;22.20;93.80
35603;DHT22;21725;50.836;4.368;2022-10-16T14:25:27;22.30;93.80
35603;DHT22;21725;50.836;4.368;2022-10-16T14:28:25;22.30;93.80
35603;DHT22;21725;50.836;4.368;2022-10-16T14:30:56;22.20;93.90
35603;DHT22;21725;50.836;4.368;2022-10-16T14:36:04;22.10;94.10
35603;DHT22;21725;50.836;4.368;2022-10-16T14:38:33;22.20;94.00
35603;DHT22;21725;50.836;4.368;2022-10-16T14:41:00;22.10;94.30
35603;DHT22;21725;50.836;4.368;2022-10-16T14:46:16;21.90;94.60
35603;DHT22;21725;50.836;4.368;2022-10-16T14:48:58;21.90;94.70
35603;DHT22;21725;50.836;4.368;2022-10-16T14:51:33;22.00;94.40
35603;DHT22;21725;50.836;4.368;2022-10-16T14:54:01;22.00;94.50
35603;DHT22;21725;50.836;4.368;2022-10-16T14:56:51;21.90;94.90
35603;DHT22;21725;50.836;4.368;2022-10-16T14:59:35;21.80;94.90
35603;DHT22;21725;50.836;4.368;2022-10-16T15:05:13;21.80;94.90
35603;DHT22;21725;50.836;4.368;2022-10-16T15:07:39;21.90;94.90
35603;DHT22;21725;50.836;4.368;2022-10-16T15:10:16;21.80;94.90
35603;DHT22;21725;50.836;4.368;2022-10-16T15:12:44;21.80;94.90
35603;DHT22;21725;50.836;4.368;2022-10-16T15:15:38;21.60;95.20
35603;DHT22;21725;50.836;4.368;2022-10-16T15:18:05;21.90;94.90
35603;DHT22;21725;50.836;4.368;2022-10-16T15:20:36;22.00;94.70
35603;DHT22;21725;50.836;4.368;2022-10-16T15:23:13;21.90;94.70
35603;DHT22;21725;50.836;4.368;2022-10-16T15:28:17;21.70;95.10
35603;DHT22;21725;50.836;4.368;2022-10-16T15:30:48;21.70;95.10
35603;DHT22;21725;50.836;4.368;2022-10-16T15:33:27;21.50;95.40
35603;DHT22;21725;50.836;4.368;2022-10-16T15:36:04;21.60;95.50
35603;DHT22;21725;50.836;4.368;2022-10-16T15:38:34;21.60;95.60
35603;DHT22;21725;50.836;4.368;2022-10-16T15:41:00;21.50;95.50
35603;DHT22;21725;50.836;4.368;2022-10-16T15:43:26;21.50;95.50
35603;DHT22;21725;50.836;4.368;2022-10-16T15:46:06;21.40;95.70
35603;DHT22;21725;50.836;4.368;2022-10-16T15:48:41;21.50;95.60
35603;DHT22;21725;50.836;4.368;2022-10-16T15:51:08;21.50;95.60
35603;DHT22;21725;50.836;4.368;2022-10-16T15:53:34;21.40;95.70
35603;DHT22;21725;50.836;4.368;2022-10-16T15:56:09;21.30;95.90
35603;DHT22;21725;50.836;4.368;2022-10-16T15:58:38;21.40;95.90
35603;DHT22;21725;50.836;4.368;2022-10-16T16:01:05;21.40;96.00
35603;DHT22;21725;50.836;4.368;2022-10-16T16:03:33;21.50;95.90
35603;DHT22;21725;50.836;4.368;2022-10-16T16:06:08;21.40;96.00
35603;DHT22;21725;50.836;4.368;2022-10-16T16:08:35;21.50;96.20
35603;DHT22;21725;50.836;4.368;2022-10-16T16:11:06;21.40;96.30
35603;DHT22;21725;50.836;4.368;2022-10-16T16:13:38;21.30;96.50
35603;DHT22;21725;50.836;4.368;2022-10-16T16:16:24;21.30;96.70
35603;DHT22;21725;50.836;4.368;2022-10-16T16:18:55;21.20;96.90
35603;DHT22;21725;50.836;4.368;2022-10-16T16:21:24;21.10;97.10
35603;DHT22;21725;50.836;4.368;2022-10-16T16:23:55;21.10;97.30
35603;DHT22;21725;50.836;4.368;2022-10-16T16:26:26;21.30;97.20
35603;DHT22;21725;50.836;4.368;2022-10-16T16:28:54;21.30;97.10
35603;DHT22;21725;50.836;4.368;2022-10-16T16:31:25;21.20;97.30
35603;DHT22;21725;50.836;4.368;2022-10-16T16:33:57;21.20;97.50
35603;DHT22;21725;50.836;4.368;2022-10-16T16:36:26;21.10;97.50
35603;DHT22;21725;50.836;4.368;2022-10-16T16:38:52;21.20;97.60
35603;DHT22;21725;50.836;4.368;2022-10-16T16:41:21;21.20;97.70
35603;DHT22;21725;50.836;4.368;2022-10-16T16:43:52;21.10;97.80
35603;DHT22;21725;50.836;4.368;2022-10-16T16:46:26;21.00;98.00
35603;DHT22;21725;50.836;4.368;2022-10-16T16:48:54;21.00;98.00
35603;DHT22;21725;50.836;4.368;2022-10-16T16:51:35;21.10;98.00
35603;DHT22;21725;50.836;4.368;2022-10-16T16:54:10;20.90;98.20
35603;DHT22;21725;50.836;4.368;2022-10-16T16:56:50;20.80;98.40
35603;DHT22;21725;50.836;4.368;2022-10-16T16:59:24;20.90;98.50
35603;DHT22;21725;50.836;4.368;2022-10-16T17:01:53;21.00;98.30
35603;DHT22;21725;50.836;4.368;2022-10-16T17:04:23;21.20;98.30
35603;DHT22;21725;50.836;4.368;2022-10-16T17:06:53;21.40;98.40
35603;DHT22;21725;50.836;4.368;2022-10-16T17:09:22;21.30;99.10
35603;DHT22;21725;50.836;4.368;2022-10-16T17:11:49;21.10;99.80
35603;DHT22;21725;50.836;4.368;2022-10-16T17:14:17;20.90;99.90
35603;DHT22;21725;50.836;4.368;2022-10-16T17:16:44;20.80;99.90
35603;DHT22;21725;50.836;4.368;2022-10-16T17:19:17;20.80;99.90
35603;DHT22;21725;50.836;4.368;2022-10-16T17:21:43;20.90;99.90
35603;DHT22;21725;50.836;4.368;2022-10-16T17:24:15;20.80;99.90
35603;DHT22;21725;50.836;4.368;2022-10-16T17:26:52;20.70;99.90
35603;DHT22;21725;50.836;4.368;2022-10-16T17:29:27;20.70;99.90
35603;DHT22;21725;50.836;4.368;2022-10-16T17:32:14;20.80;99.90
35603;DHT22;21725;50.836;4.368;2022-10-16T17:34:45;20.80;99.90
35603;DHT22;21725;50.836;4.368;2022-10-16T17:37:14;21.00;99.90
35603;DHT22;21725;50.836;4.368;2022-10-16T17:39:42;20.70;99.90
35603;DHT22;21725;50.836;4.368;2022-10-16T17:42:19;20.40;99.90
35603;DHT22;21725;50.836;4.368;2022-10-16T17:44:45;20.20;99.90
35603;DHT22;21725;50.836;4.368;2022-10-16T17:47:12;20.20;99.90
35603;DHT22;21725;50.836;4.368;2022-10-16T17:49:41;20.30;99.90